sensor_id;sensor_type;location;lat;lon;timestamp;P1;durP1;ratioP1;P2;durP2;ratioP2
40072;SDS011;25774;52.256;9.356;2022-10-16T00:01:21;2.33;;;1.05;;
40072;SDS011;25774;52.256;9.356;2022-10-16T00:03:48;1.50;;;0.70;;
40072;SDS011;25774;52.256;9.356;2022-10-16T00:06:14;8.20;;;1.10;;
40072;SDS011;25774;52.256;9.356;2022-10-16T00:08:41;5.38;;;1.10;;
40072;SDS011;25774;52.256;9.356;2022-10-16T00:13:44;2.83;;;0.80;;
40072;SDS011;25774;52.256;9.356;2022-10-16T00:16:11;8.52;;;1.25;;
40072;SDS011;25774;52.256;9.356;2022-10-16T00:18:39;1.83;;;0.70;;
40072;SDS011;25774;52.256;9.356;2022-10-16T00:21:05;2.67;;;0.88;;
40072;SDS011;25774;52.256;9.356;2022-10-16T00:23:33;21.02;;;1.35;;
40072;SDS011;25774;52.256;9.356;2022-10-16T00:26:00;4.70;;;0.73;;
40072;SDS011;25774;52.256;9.356;2022-10-16T00:28:27;11.27;;;0.98;;
40072;SDS011;25774;52.256;9.356;2022-10-16T00:30:53;1.10;;;0.50;;
40072;SDS011;25774;52.256;9.356;2022-10-16T00:33:19;9.52;;;0.77;;
40072;SDS011;25774;52.256;9.356;2022-10-16T00:35:45;5.43;;;0.50;;
40072;SDS011;25774;52.256;9.356;2022-10-16T00:38:11;10.10;;;1.03;;
40072;SDS011;25774;52.256;9.356;2022-10-16T00:40:36;5.23;;;0.60;;
40072;SDS011;25774;52.256;9.356;2022-10-16T00:43:02;12.85;;;1.02;;
40072;SDS011;25774;52.256;9.356;2022-10-16T00:45:32;12.20;;;0.93;;
40072;SDS011;25774;52.256;9.356;2022-10-16T00:47:57;7.07;;;1.10;;
40072;SDS011;25774;52.256;9.356;2022-10-16T00:52:56;3.50;;;0.80;;
40072;SDS011;25774;52.256;9.356;2022-10-16T00:57:48;13.43;;;1.10;;
40072;SDS011;25774;52.256;9.356;2022-10-16T01:00:16;4.18;;;1.00;;
40072;SDS011;25774;52.256;9.356;2022-10-16T01:05:31;6.68;;;0.93;;
40072;SDS011;25774;52.256;9.356;2022-10-16T01:08:25;6.35;;;0.80;;
40072;SDS011;25774;52.256;9.356;2022-10-16T01:10:59;5.50;;;0.90;;
40072;SDS011;25774;52.256;9.356;2022-10-16T01:13:35;7.00;;;1.13;;
40072;SDS011;25774;52.256;9.356;2022-10-16T01:16:10;2.63;;;0.68;;
40072;SDS011;25774;52.256;9.356;2022-10-16T01:18:46;2.85;;;1.30;;
40072;SDS011;25774;52.256;9.356;2022-10-16T01:21:50;9.05;;;1.02;;
40072;SDS011;25774;52.256;9.356;2022-10-16T01:27:07;6.82;;;1.17;;
40072;SDS011;25774;52.256;9.356;2022-10-16T01:29:53;13.32;;;1.42;;
40072;SDS011;25774;52.256;9.356;2022-10-16T01:32:32;4.03;;;1.52;;
40072;SDS011;25774;52.256;9.356;2022-10-16T01:35:06;6.70;;;1.33;;
40072;SDS011;25774;52.256;9.356;2022-10-16T01:37:40;4.82;;;1.25;;
40072;SDS011;25774;52.256;9.356;2022-10-16T01:40:11;2.13;;;1.10;;
40072;SDS011;25774;52.256;9.356;2022-10-16T01:42:44;15.63;;;1.90;;
40072;SDS011;25774;52.256;9.356;2022-10-16T01:45:14;4.97;;;1.70;;
40072;SDS011;25774;52.256;9.356;2022-10-16T01:47:43;9.10;;;1.50;;
40072;SDS011;25774;52.256;9.356;2022-10-16T01:50:09;3.17;;;1.65;;
40072;SDS011;25774;52.256;9.356;2022-10-16T01:52:36;6.60;;;1.70;;
40072;SDS011;25774;52.256;9.356;2022-10-16T01:55:04;9.32;;;1.45;;
40072;SDS011;25774;52.256;9.356;2022-10-16T01:57:33;9.93;;;1.50;;
40072;SDS011;25774;52.256;9.356;2022-10-16T02:00:05;6.05;;;1.25;;
40072;SDS011;25774;52.256;9.356;2022-10-16T02:02:35;9.20;;;1.58;;
40072;SDS011;25774;52.256;9.356;2022-10-16T02:05:03;5.72;;;1.10;;
40072;SDS011;25774;52.256;9.356;2022-10-16T02:07:34;4.05;;;1.42;;
40072;SDS011;25774;52.256;9.356;2022-10-16T02:10:00;5.30;;;1.67;;
40072;SDS011;25774;52.256;9.356;2022-10-16T02:12:26;11.73;;;2.90;;
40072;SDS011;25774;52.256;9.356;2022-10-16T02:14:55;13.52;;;1.63;;
40072;SDS011;25774;52.256;9.356;2022-10-16T02:17:22;5.20;;;1.25;;
40072;SDS011;25774;52.256;9.356;2022-10-16T02:19:48;11.43;;;1.45;;
40072;SDS011;25774;52.256;9.356;2022-10-16T02:22:24;5.47;;;1.70;;
40072;SDS011;25774;52.256;9.356;2022-10-16T02:29:55;15.02;;;1.60;;
40072;SDS011;25774;52.256;9.356;2022-10-16T02:32:32;4.90;;;1.40;;
40072;SDS011;25774;52.256;9.356;2022-10-16T02:34:59;2.15;;;1.10;;
40072;SDS011;25774;52.256;9.356;2022-10-16T02:37:26;4.75;;;1.33;;
40072;SDS011;25774;52.256;9.356;2022-10-16T02:39:53;4.78;;;1.33;;
40072;SDS011;25774;52.256;9.356;2022-10-16T02:42:19;4.35;;;1.67;;
40072;SDS011;25774;52.256;9.356;2022-10-16T02:44:45;5.07;;;1.63;;
40072;SDS011;25774;52.256;9.356;2022-10-16T02:47:10;5.47;;;1.40;;
40072;SDS011;25774;52.256;9.356;2022-10-16T02:52:03;10.13;;;2.05;;
40072;SDS011;25774;52.256;9.356;2022-10-16T02:54:28;10.85;;;1.48;;
40072;SDS011;25774;52.256;9.356;2022-10-16T02:56:55;6.77;;;2.40;;
40072;SDS011;25774;52.256;9.356;2022-10-16T03:01:45;5.95;;;1.80;;
40072;SDS011;25774;52.256;9.356;2022-10-16T03:04:11;4.77;;;1.57;;
40072;SDS011;25774;52.256;9.356;2022-10-16T03:09:03;4.60;;;1.80;;
40072;SDS011;25774;52.256;9.356;2022-10-16T03:11:29;3.58;;;1.60;;
40072;SDS011;25774;52.256;9.356;2022-10-16T03:16:20;4.37;;;1.80;;
40072;SDS011;25774;52.256;9.356;2022-10-16T03:18:48;4.50;;;1.60;;
40072;SDS011;25774;52.256;9.356;2022-10-16T03:21:14;6.55;;;1.88;;
40072;SDS011;25774;52.256;9.356;2022-10-16T03:23:40;3.58;;;1.45;;
40072;SDS011;25774;52.256;9.356;2022-10-16T03:26:05;4.23;;;1.87;;
40072;SDS011;25774;52.256;9.356;2022-10-16T03:28:30;3.73;;;1.87;;
40072;SDS011;25774;52.256;9.356;2022-10-16T03:30:56;9.20;;;2.00;;
40072;SDS011;25774;52.256;9.356;2022-10-16T03:33:21;23.97;;;2.00;;
40072;SDS011;25774;52.256;9.356;2022-10-16T03:35:53;6.27;;;1.63;;
40072;SDS011;25774;52.256;9.356;2022-10-16T03:38:20;6.25;;;1.55;;
40072;SDS011;25774;52.256;9.356;2022-10-16T03:40:46;5.88;;;1.77;;
40072;SDS011;25774;52.256;9.356;2022-10-16T03:43:11;3.73;;;1.40;;
40072;SDS011;25774;52.256;9.356;2022-10-16T03:45:37;6.40;;;1.83;;
40072;SDS011;25774;52.256;9.356;2022-10-16T03:48:03;7.40;;;1.93;;
40072;SDS011;25774;52.256;9.356;2022-10-16T03:50:29;2.90;;;1.90;;
40072;SDS011;25774;52.256;9.356;2022-10-16T03:52:55;5.00;;;1.70;;
40072;SDS011;25774;52.256;9.356;2022-10-16T03:57:46;4.53;;;1.63;;
40072;SDS011;25774;52.256;9.356;2022-10-16T04:00:11;4.83;;;2.00;;
40072;SDS011;25774;52.256;9.356;2022-10-16T04:02:37;5.85;;;1.88;;
40072;SDS011;25774;52.256;9.356;2022-10-16T04:05:03;5.80;;;2.22;;
40072;SDS011;25774;52.256;9.356;2022-10-16T04:07:29;5.72;;;2.60;;
40072;SDS011;25774;52.256;9.356;2022-10-16T04:09:55;4.90;;;2.17;;
40072;SDS011;25774;52.256;9.356;2022-10-16T04:12:22;4.65;;;2.28;;
40072;SDS011;25774;52.256;9.356;2022-10-16T04:14:47;7.65;;;2.10;;
40072;SDS011;25774;52.256;9.356;2022-10-16T04:17:13;12.00;;;3.20;;
40072;SDS011;25774;52.256;9.356;2022-10-16T04:19:38;9.07;;;2.40;;
40072;SDS011;25774;52.256;9.356;2022-10-16T04:22:03;4.33;;;2.40;;
40072;SDS011;25774;52.256;9.356;2022-10-16T04:24:29;6.23;;;2.60;;
40072;SDS011;25774;52.256;9.356;2022-10-16T04:26:54;4.07;;;2.40;;
40072;SDS011;25774;52.256;9.356;2022-10-16T04:29:19;4.37;;;2.20;;
40072;SDS011;25774;52.256;9.356;2022-10-16T04:31:45;9.00;;;2.53;;
40072;SDS011;25774;52.256;9.356;2022-10-16T04:34:10;7.73;;;2.40;;
40072;SDS011;25774;52.256;9.356;2022-10-16T04:36:35;6.20;;;2.70;;
40072;SDS011;25774;52.256;9.356;2022-10-16T04:39:01;11.40;;;2.80;;
40072;SDS011;25774;52.256;9.356;2022-10-16T04:41:26;6.40;;;2.63;;
40072;SDS011;25774;52.256;9.356;2022-10-16T04:43:52;8.57;;;2.47;;
40072;SDS011;25774;52.256;9.356;2022-10-16T04:46:17;5.83;;;2.47;;
40072;SDS011;25774;52.256;9.356;2022-10-16T04:48:43;7.63;;;2.50;;
40072;SDS011;25774;52.256;9.356;2022-10-16T04:51:09;13.95;;;2.17;;
40072;SDS011;25774;52.256;9.356;2022-10-16T04:53:34;5.80;;;2.25;;
40072;SDS011;25774;52.256;9.356;2022-10-16T04:56:01;11.00;;;2.10;;
40072;SDS011;25774;52.256;9.356;2022-10-16T04:58:26;6.70;;;2.05;;
40072;SDS011;25774;52.256;9.356;2022-10-16T05:00:51;7.10;;;2.00;;
40072;SDS011;25774;52.256;9.356;2022-10-16T05:03:17;14.93;;;3.67;;
40072;SDS011;25774;52.256;9.356;2022-10-16T05:05:42;12.77;;;2.17;;
40072;SDS011;25774;52.256;9.356;2022-10-16T05:08:09;5.22;;;2.20;;
40072;SDS011;25774;52.256;9.356;2022-10-16T05:10:35;6.38;;;2.00;;
40072;SDS011;25774;52.256;9.356;2022-10-16T05:13:00;8.97;;;1.73;;
40072;SDS011;25774;52.256;9.356;2022-10-16T05:15:25;4.57;;;1.80;;
40072;SDS011;25774;52.256;9.356;2022-10-16T05:17:54;7.37;;;1.77;;
40072;SDS011;25774;52.256;9.356;2022-10-16T05:20:21;21.58;;;2.50;;
40072;SDS011;25774;52.256;9.356;2022-10-16T05:25:12;11.32;;;2.20;;
40072;SDS011;25774;52.256;9.356;2022-10-16T05:27:38;12.70;;;2.17;;
40072;SDS011;25774;52.256;9.356;2022-10-16T05:30:03;8.30;;;1.80;;
40072;SDS011;25774;52.256;9.356;2022-10-16T05:32:30;6.88;;;3.28;;
40072;SDS011;25774;52.256;9.356;2022-10-16T05:34:55;7.60;;;2.25;;
40072;SDS011;25774;52.256;9.356;2022-10-16T05:37:20;7.27;;;2.00;;
40072;SDS011;25774;52.256;9.356;2022-10-16T05:39:46;4.27;;;1.60;;
40072;SDS011;25774;52.256;9.356;2022-10-16T05:42:11;13.23;;;2.50;;
40072;SDS011;25774;52.256;9.356;2022-10-16T05:44:37;11.18;;;2.20;;
40072;SDS011;25774;52.256;9.356;2022-10-16T05:47:02;17.63;;;2.33;;
40072;SDS011;25774;52.256;9.356;2022-10-16T05:49:27;3.10;;;1.67;;
40072;SDS011;25774;52.256;9.356;2022-10-16T05:51:53;10.30;;;2.60;;
40072;SDS011;25774;52.256;9.356;2022-10-16T05:54:18;15.87;;;2.30;;
40072;SDS011;25774;52.256;9.356;2022-10-16T05:56:43;10.17;;;2.10;;
40072;SDS011;25774;52.256;9.356;2022-10-16T05:59:09;11.27;;;2.17;;
40072;SDS011;25774;52.256;9.356;2022-10-16T06:01:34;9.63;;;2.07;;
40072;SDS011;25774;52.256;9.356;2022-10-16T06:04:01;12.13;;;4.10;;
40072;SDS011;25774;52.256;9.356;2022-10-16T06:06:27;4.75;;;1.90;;
40072;SDS011;25774;52.256;9.356;2022-10-16T06:08:55;19.67;;;2.00;;
40072;SDS011;25774;52.256;9.356;2022-10-16T06:11:22;3.90;;;1.73;;
40072;SDS011;25774;52.256;9.356;2022-10-16T06:13:53;7.70;;;1.63;;
40072;SDS011;25774;52.256;9.356;2022-10-16T06:16:21;3.92;;;1.90;;
40072;SDS011;25774;52.256;9.356;2022-10-16T06:18:47;4.57;;;1.92;;
40072;SDS011;25774;52.256;9.356;2022-10-16T06:21:22;4.10;;;1.80;;
40072;SDS011;25774;52.256;9.356;2022-10-16T06:23:57;6.50;;;1.80;;
40072;SDS011;25774;52.256;9.356;2022-10-16T06:26:24;9.10;;;1.83;;
40072;SDS011;25774;52.256;9.356;2022-10-16T06:28:51;4.68;;;1.80;;
40072;SDS011;25774;52.256;9.356;2022-10-16T06:31:18;9.57;;;1.95;;
40072;SDS011;25774;52.256;9.356;2022-10-16T06:33:44;4.93;;;2.30;;
40072;SDS011;25774;52.256;9.356;2022-10-16T06:36:13;7.18;;;2.58;;
40072;SDS011;25774;52.256;9.356;2022-10-16T06:38:41;8.85;;;2.00;;
40072;SDS011;25774;52.256;9.356;2022-10-16T06:41:07;7.85;;;1.27;;
40072;SDS011;25774;52.256;9.356;2022-10-16T06:43:34;10.75;;;1.35;;
40072;SDS011;25774;52.256;9.356;2022-10-16T06:46:00;3.28;;;1.00;;
40072;SDS011;25774;52.256;9.356;2022-10-16T06:48:26;2.95;;;0.90;;
40072;SDS011;25774;52.256;9.356;2022-10-16T06:53:21;1.17;;;0.80;;
40072;SDS011;25774;52.256;9.356;2022-10-16T06:55:46;4.63;;;0.97;;
40072;SDS011;25774;52.256;9.356;2022-10-16T06:58:11;7.37;;;1.23;;
40072;SDS011;25774;52.256;9.356;2022-10-16T07:00:37;3.33;;;0.63;;
40072;SDS011;25774;52.256;9.356;2022-10-16T07:03:02;1.77;;;0.90;;
40072;SDS011;25774;52.256;9.356;2022-10-16T07:05:27;3.67;;;1.00;;
40072;SDS011;25774;52.256;9.356;2022-10-16T07:07:53;5.20;;;0.67;;
40072;SDS011;25774;52.256;9.356;2022-10-16T07:10:18;5.23;;;0.87;;
40072;SDS011;25774;52.256;9.356;2022-10-16T07:12:43;4.57;;;0.70;;
40072;SDS011;25774;52.256;9.356;2022-10-16T07:17:35;4.47;;;0.90;;
40072;SDS011;25774;52.256;9.356;2022-10-16T07:20:01;1.60;;;0.70;;
40072;SDS011;25774;52.256;9.356;2022-10-16T07:22:28;1.30;;;0.63;;
40072;SDS011;25774;52.256;9.356;2022-10-16T07:24:53;2.25;;;0.57;;
40072;SDS011;25774;52.256;9.356;2022-10-16T07:27:18;1.33;;;0.60;;
40072;SDS011;25774;52.256;9.356;2022-10-16T07:29:44;2.97;;;0.60;;
40072;SDS011;25774;52.256;9.356;2022-10-16T07:32:09;3.47;;;0.67;;
40072;SDS011;25774;52.256;9.356;2022-10-16T07:34:35;1.77;;;0.60;;
40072;SDS011;25774;52.256;9.356;2022-10-16T07:37:00;7.90;;;0.60;;
40072;SDS011;25774;52.256;9.356;2022-10-16T07:39:26;1.33;;;0.50;;
40072;SDS011;25774;52.256;9.356;2022-10-16T07:41:51;3.63;;;0.50;;
40072;SDS011;25774;52.256;9.356;2022-10-16T07:44:16;3.50;;;0.70;;
40072;SDS011;25774;52.256;9.356;2022-10-16T07:46:42;1.57;;;0.50;;
40072;SDS011;25774;52.256;9.356;2022-10-16T07:49:08;1.20;;;0.67;;
40072;SDS011;25774;52.256;9.356;2022-10-16T07:53:59;9.85;;;1.00;;
40072;SDS011;25774;52.256;9.356;2022-10-16T07:56:24;1.30;;;0.37;;
40072;SDS011;25774;52.256;9.356;2022-10-16T07:58:50;2.83;;;1.17;;
40072;SDS011;25774;52.256;9.356;2022-10-16T08:01:16;2.55;;;1.15;;
40072;SDS011;25774;52.256;9.356;2022-10-16T08:03:43;2.95;;;0.40;;
40072;SDS011;25774;52.256;9.356;2022-10-16T08:06:11;0.45;;;0.30;;
40072;SDS011;25774;52.256;9.356;2022-10-16T08:08:37;11.37;;;0.87;;
40072;SDS011;25774;52.256;9.356;2022-10-16T08:11:02;1.70;;;0.50;;
40072;SDS011;25774;52.256;9.356;2022-10-16T08:13:29;0.80;;;0.50;;
40072;SDS011;25774;52.256;9.356;2022-10-16T08:15:55;5.55;;;0.50;;
40072;SDS011;25774;52.256;9.356;2022-10-16T08:18:20;3.17;;;0.50;;
40072;SDS011;25774;52.256;9.356;2022-10-16T08:20:46;3.20;;;0.52;;
40072;SDS011;25774;52.256;9.356;2022-10-16T08:23:11;1.10;;;0.40;;
40072;SDS011;25774;52.256;9.356;2022-10-16T08:25:38;1.67;;;0.50;;
40072;SDS011;25774;52.256;9.356;2022-10-16T08:28:05;0.82;;;0.40;;
40072;SDS011;25774;52.256;9.356;2022-10-16T08:30:33;0.65;;;0.32;;
40072;SDS011;25774;52.256;9.356;2022-10-16T08:33:00;2.13;;;0.45;;
40072;SDS011;25774;52.256;9.356;2022-10-16T08:35:26;0.95;;;0.47;;
40072;SDS011;25774;52.256;9.356;2022-10-16T08:37:51;1.63;;;0.60;;
40072;SDS011;25774;52.256;9.356;2022-10-16T08:40:21;0.77;;;0.43;;
40072;SDS011;25774;52.256;9.356;2022-10-16T08:46:03;5.97;;;0.57;;
40072;SDS011;25774;52.256;9.356;2022-10-16T08:48:50;1.05;;;0.50;;
40072;SDS011;25774;52.256;9.356;2022-10-16T08:51:19;1.38;;;0.47;;
40072;SDS011;25774;52.256;9.356;2022-10-16T08:53:49;1.05;;;0.50;;
40072;SDS011;25774;52.256;9.356;2022-10-16T08:56:18;0.55;;;0.30;;
40072;SDS011;25774;52.256;9.356;2022-10-16T08:58:44;3.73;;;1.27;;
40072;SDS011;25774;52.256;9.356;2022-10-16T09:01:12;0.75;;;0.47;;
40072;SDS011;25774;52.256;9.356;2022-10-16T09:06:37;3.80;;;0.65;;
40072;SDS011;25774;52.256;9.356;2022-10-16T09:12:03;2.25;;;0.50;;
40072;SDS011;25774;52.256;9.356;2022-10-16T09:23:27;2.67;;;0.70;;
40072;SDS011;25774;52.256;9.356;2022-10-16T09:25:55;1.88;;;0.40;;
40072;SDS011;25774;52.256;9.356;2022-10-16T09:28:22;1.88;;;0.30;;
40072;SDS011;25774;52.256;9.356;2022-10-16T09:30:48;2.40;;;0.40;;
40072;SDS011;25774;52.256;9.356;2022-10-16T09:33:14;4.38;;;0.40;;
40072;SDS011;25774;52.256;9.356;2022-10-16T09:35:44;4.55;;;0.40;;
40072;SDS011;25774;52.256;9.356;2022-10-16T09:40:48;4.68;;;0.28;;
40072;SDS011;25774;52.256;9.356;2022-10-16T09:45:55;1.27;;;0.30;;
40072;SDS011;25774;52.256;9.356;2022-10-16T09:48:22;5.35;;;0.93;;
40072;SDS011;25774;52.256;9.356;2022-10-16T09:51:02;1.02;;;0.32;;
40072;SDS011;25774;52.256;9.356;2022-10-16T09:53:41;1.25;;;0.50;;
40072;SDS011;25774;52.256;9.356;2022-10-16T09:56:10;4.53;;;0.40;;
40072;SDS011;25774;52.256;9.356;2022-10-16T09:58:41;2.25;;;0.38;;
40072;SDS011;25774;52.256;9.356;2022-10-16T10:01:11;4.53;;;0.30;;
40072;SDS011;25774;52.256;9.356;2022-10-16T10:03:40;6.75;;;0.52;;
40072;SDS011;25774;52.256;9.356;2022-10-16T10:06:23;0.70;;;0.30;;
40072;SDS011;25774;52.256;9.356;2022-10-16T10:08:56;11.93;;;1.38;;
40072;SDS011;25774;52.256;9.356;2022-10-16T10:11:42;2.78;;;0.40;;
40072;SDS011;25774;52.256;9.356;2022-10-16T10:16:43;2.05;;;0.40;;
40072;SDS011;25774;52.256;9.356;2022-10-16T10:19:16;1.75;;;0.40;;
40072;SDS011;25774;52.256;9.356;2022-10-16T10:21:49;7.25;;;0.60;;
40072;SDS011;25774;52.256;9.356;2022-10-16T10:24:17;4.22;;;0.95;;
40072;SDS011;25774;52.256;9.356;2022-10-16T10:26:55;4.55;;;0.50;;
40072;SDS011;25774;52.256;9.356;2022-10-16T10:34:52;3.10;;;0.50;;
40072;SDS011;25774;52.256;9.356;2022-10-16T10:37:37;3.97;;;0.40;;
40072;SDS011;25774;52.256;9.356;2022-10-16T10:42:55;6.60;;;0.40;;
40072;SDS011;25774;52.256;9.356;2022-10-16T10:45:27;6.00;;;0.63;;
40072;SDS011;25774;52.256;9.356;2022-10-16T10:48:27;1.38;;;0.35;;
40072;SDS011;25774;52.256;9.356;2022-10-16T10:51:11;0.98;;;0.35;;
40072;SDS011;25774;52.256;9.356;2022-10-16T11:04:49;1.23;;;0.30;;
40072;SDS011;25774;52.256;9.356;2022-10-16T11:07:30;5.13;;;0.40;;
40072;SDS011;25774;52.256;9.356;2022-10-16T11:10:02;1.45;;;0.32;;
40072;SDS011;25774;52.256;9.356;2022-10-16T11:12:42;1.25;;;0.30;;
40072;SDS011;25774;52.256;9.356;2022-10-16T11:15:17;4.43;;;0.57;;
40072;SDS011;25774;52.256;9.356;2022-10-16T11:17:51;5.40;;;0.28;;
40072;SDS011;25774;52.256;9.356;2022-10-16T11:20:22;1.08;;;0.40;;
40072;SDS011;25774;52.256;9.356;2022-10-16T11:22:51;2.08;;;0.20;;
40072;SDS011;25774;52.256;9.356;2022-10-16T11:25:22;7.20;;;0.65;;
40072;SDS011;25774;52.256;9.356;2022-10-16T11:28:02;2.30;;;0.50;;
40072;SDS011;25774;52.256;9.356;2022-10-16T11:30:39;2.38;;;0.30;;
40072;SDS011;25774;52.256;9.356;2022-10-16T11:41:22;3.63;;;0.30;;
40072;SDS011;25774;52.256;9.356;2022-10-16T11:44:32;3.45;;;0.40;;
40072;SDS011;25774;52.256;9.356;2022-10-16T11:49:57;2.13;;;0.25;;
40072;SDS011;25774;52.256;9.356;2022-10-16T11:52:28;1.23;;;0.60;;
40072;SDS011;25774;52.256;9.356;2022-10-16T11:55:13;2.95;;;0.30;;
40072;SDS011;25774;52.256;9.356;2022-10-16T11:57:44;0.85;;;0.20;;
40072;SDS011;25774;52.256;9.356;2022-10-16T12:00:20;3.63;;;0.80;;
40072;SDS011;25774;52.256;9.356;2022-10-16T12:08:09;4.22;;;0.40;;
40072;SDS011;25774;52.256;9.356;2022-10-16T12:10:38;1.60;;;0.32;;
40072;SDS011;25774;52.256;9.356;2022-10-16T12:13:26;3.00;;;0.20;;
40072;SDS011;25774;52.256;9.356;2022-10-16T12:16:03;2.08;;;0.35;;
40072;SDS011;25774;52.256;9.356;2022-10-16T12:18:49;1.77;;;0.40;;
40072;SDS011;25774;52.256;9.356;2022-10-16T12:21:15;3.83;;;0.38;;
40072;SDS011;25774;52.256;9.356;2022-10-16T12:23:54;2.40;;;0.25;;
40072;SDS011;25774;52.256;9.356;2022-10-16T12:26:25;5.78;;;0.40;;
40072;SDS011;25774;52.256;9.356;2022-10-16T12:28:53;1.13;;;0.20;;
40072;SDS011;25774;52.256;9.356;2022-10-16T12:31:20;3.72;;;0.52;;
40072;SDS011;25774;52.256;9.356;2022-10-16T12:34:01;1.77;;;0.25;;
40072;SDS011;25774;52.256;9.356;2022-10-16T12:38:55;4.25;;;0.30;;
40072;SDS011;25774;52.256;9.356;2022-10-16T12:41:27;2.38;;;0.10;;
40072;SDS011;25774;52.256;9.356;2022-10-16T12:43:54;0.57;;;0.20;;
40072;SDS011;25774;52.256;9.356;2022-10-16T12:46:26;3.63;;;0.30;;
40072;SDS011;25774;52.256;9.356;2022-10-16T12:51:59;3.65;;;0.40;;
40072;SDS011;25774;52.256;9.356;2022-10-16T12:54:28;2.92;;;0.25;;
40072;SDS011;25774;52.256;9.356;2022-10-16T13:16:20;0.82;;;0.20;;
40072;SDS011;25774;52.256;9.356;2022-10-16T13:21:38;1.45;;;0.25;;
40072;SDS011;25774;52.256;9.356;2022-10-16T13:27:23;5.38;;;0.35;;
40072;SDS011;25774;52.256;9.356;2022-10-16T13:29:54;1.58;;;0.32;;
40072;SDS011;25774;52.256;9.356;2022-10-16T13:32:26;0.25;;;0.10;;
40072;SDS011;25774;52.256;9.356;2022-10-16T13:34:52;4.50;;;0.30;;
40072;SDS011;25774;52.256;9.356;2022-10-16T13:37:20;1.55;;;0.20;;
40072;SDS011;25774;52.256;9.356;2022-10-16T13:39:47;3.22;;;0.60;;
40072;SDS011;25774;52.256;9.356;2022-10-16T13:42:23;7.00;;;0.10;;
40072;SDS011;25774;52.256;9.356;2022-10-16T13:44:52;1.05;;;0.25;;
40072;SDS011;25774;52.256;9.356;2022-10-16T13:47:23;2.92;;;0.35;;
40072;SDS011;25774;52.256;9.356;2022-10-16T13:50:03;1.92;;;0.20;;
40072;SDS011;25774;52.256;9.356;2022-10-16T13:52:31;0.50;;;0.10;;
40072;SDS011;25774;52.256;9.356;2022-10-16T13:54:56;0.70;;;0.20;;
40072;SDS011;25774;52.256;9.356;2022-10-16T13:57:23;2.38;;;0.52;;
40072;SDS011;25774;52.256;9.356;2022-10-16T13:59:49;1.52;;;0.20;;
40072;SDS011;25774;52.256;9.356;2022-10-16T14:05:11;2.90;;;0.32;;
40072;SDS011;25774;52.256;9.356;2022-10-16T14:07:39;2.97;;;0.40;;
40072;SDS011;25774;52.256;9.356;2022-10-16T14:10:06;1.27;;;0.10;;
40072;SDS011;25774;52.256;9.356;2022-10-16T14:12:43;2.28;;;0.20;;
40072;SDS011;25774;52.256;9.356;2022-10-16T14:15:15;2.47;;;0.35;;
40072;SDS011;25774;52.256;9.356;2022-10-16T14:17:48;2.33;;;0.40;;
40072;SDS011;25774;52.256;9.356;2022-10-16T14:20:17;0.93;;;0.20;;
40072;SDS011;25774;52.256;9.356;2022-10-16T14:22:44;3.45;;;0.25;;
40072;SDS011;25774;52.256;9.356;2022-10-16T14:27:45;1.27;;;0.30;;
40072;SDS011;25774;52.256;9.356;2022-10-16T14:33:03;8.27;;;0.30;;
40072;SDS011;25774;52.256;9.356;2022-10-16T14:35:32;1.55;;;0.20;;
40072;SDS011;25774;52.256;9.356;2022-10-16T14:38:02;3.05;;;0.30;;
40072;SDS011;25774;52.256;9.356;2022-10-16T14:40:33;6.45;;;1.08;;
40072;SDS011;25774;52.256;9.356;2022-10-16T14:43:01;2.25;;;0.50;;
40072;SDS011;25774;52.256;9.356;2022-10-16T14:45:29;2.53;;;0.30;;
40072;SDS011;25774;52.256;9.356;2022-10-16T14:47:59;2.42;;;0.20;;
40072;SDS011;25774;52.256;9.356;2022-10-16T14:50:31;2.30;;;0.35;;
40072;SDS011;25774;52.256;9.356;2022-10-16T14:52:56;4.20;;;0.30;;
40072;SDS011;25774;52.256;9.356;2022-10-16T14:55:23;1.38;;;0.20;;
40072;SDS011;25774;52.256;9.356;2022-10-16T14:57:50;1.85;;;0.25;;
40072;SDS011;25774;52.256;9.356;2022-10-16T15:00:23;2.78;;;0.45;;
40072;SDS011;25774;52.256;9.356;2022-10-16T15:02:49;2.75;;;0.30;;
40072;SDS011;25774;52.256;9.356;2022-10-16T15:05:22;1.52;;;0.40;;
40072;SDS011;25774;52.256;9.356;2022-10-16T15:07:53;2.85;;;0.30;;
40072;SDS011;25774;52.256;9.356;2022-10-16T15:10:19;1.42;;;0.30;;
40072;SDS011;25774;52.256;9.356;2022-10-16T15:12:49;2.63;;;0.30;;
40072;SDS011;25774;52.256;9.356;2022-10-16T15:17:50;1.85;;;0.30;;
40072;SDS011;25774;52.256;9.356;2022-10-16T15:20:21;4.97;;;0.60;;
40072;SDS011;25774;52.256;9.356;2022-10-16T15:22:47;4.43;;;0.47;;
40072;SDS011;25774;52.256;9.356;2022-10-16T15:25:21;7.90;;;1.10;;
40072;SDS011;25774;52.256;9.356;2022-10-16T15:27:54;1.80;;;0.40;;
40072;SDS011;25774;52.256;9.356;2022-10-16T15:30:19;3.27;;;0.50;;
40072;SDS011;25774;52.256;9.356;2022-10-16T15:32:44;7.00;;;0.60;;
40072;SDS011;25774;52.256;9.356;2022-10-16T15:35:10;11.47;;;1.60;;
40072;SDS011;25774;52.256;9.356;2022-10-16T15:37:35;6.57;;;0.93;;
40072;SDS011;25774;52.256;9.356;2022-10-16T15:40:00;16.07;;;2.57;;
40072;SDS011;25774;52.256;9.356;2022-10-16T15:42:26;3.00;;;0.43;;
40072;SDS011;25774;52.256;9.356;2022-10-16T15:44:51;9.53;;;0.70;;
40072;SDS011;25774;52.256;9.356;2022-10-16T15:47:18;11.40;;;0.63;;
40072;SDS011;25774;52.256;9.356;2022-10-16T15:49:44;2.88;;;0.22;;
40072;SDS011;25774;52.256;9.356;2022-10-16T15:54:36;2.28;;;0.28;;
40072;SDS011;25774;52.256;9.356;2022-10-16T15:59:27;14.63;;;0.73;;
40072;SDS011;25774;52.256;9.356;2022-10-16T16:01:53;2.30;;;0.30;;
40072;SDS011;25774;52.256;9.356;2022-10-16T16:04:19;24.03;;;0.90;;
40072;SDS011;25774;52.256;9.356;2022-10-16T16:09:13;10.48;;;0.57;;
40072;SDS011;25774;52.256;9.356;2022-10-16T16:11:39;5.55;;;0.30;;
40072;SDS011;25774;52.256;9.356;2022-10-16T16:14:05;7.22;;;0.70;;
40072;SDS011;25774;52.256;9.356;2022-10-16T16:16:31;7.80;;;0.43;;
40072;SDS011;25774;52.256;9.356;2022-10-16T16:19:02;14.60;;;0.63;;
40072;SDS011;25774;52.256;9.356;2022-10-16T16:21:28;8.68;;;0.63;;
40072;SDS011;25774;52.256;9.356;2022-10-16T16:23:54;7.40;;;0.50;;
40072;SDS011;25774;52.256;9.356;2022-10-16T16:28:51;13.15;;;0.40;;
40072;SDS011;25774;52.256;9.356;2022-10-16T16:31:17;0.55;;;0.30;;
40072;SDS011;25774;52.256;9.356;2022-10-16T16:33:43;4.83;;;0.33;;
40072;SDS011;25774;52.256;9.356;2022-10-16T16:36:08;5.40;;;0.40;;
40072;SDS011;25774;52.256;9.356;2022-10-16T16:38:34;4.75;;;0.40;;
40072;SDS011;25774;52.256;9.356;2022-10-16T16:41:10;4.25;;;0.30;;
40072;SDS011;25774;52.256;9.356;2022-10-16T16:43:39;1.40;;;0.30;;
40072;SDS011;25774;52.256;9.356;2022-10-16T16:46:04;14.98;;;0.70;;
40072;SDS011;25774;52.256;9.356;2022-10-16T16:48:29;3.43;;;0.43;;
40072;SDS011;25774;52.256;9.356;2022-10-16T16:50:56;1.65;;;0.43;;
40072;SDS011;25774;52.256;9.356;2022-10-16T16:53:21;11.10;;;0.90;;
40072;SDS011;25774;52.256;9.356;2022-10-16T16:55:47;3.15;;;0.40;;
40072;SDS011;25774;52.256;9.356;2022-10-16T16:58:13;3.10;;;0.30;;
40072;SDS011;25774;52.256;9.356;2022-10-16T17:00:44;4.70;;;0.40;;
40072;SDS011;25774;52.256;9.356;2022-10-16T17:03:10;3.42;;;0.60;;
40072;SDS011;25774;52.256;9.356;2022-10-16T17:05:36;6.27;;;0.33;;
40072;SDS011;25774;52.256;9.356;2022-10-16T17:08:01;2.70;;;0.40;;
40072;SDS011;25774;52.256;9.356;2022-10-16T17:10:26;4.63;;;0.50;;
40072;SDS011;25774;52.256;9.356;2022-10-16T17:12:52;0.67;;;0.37;;
40072;SDS011;25774;52.256;9.356;2022-10-16T17:15:17;1.53;;;0.70;;
40072;SDS011;25774;52.256;9.356;2022-10-16T17:17:43;7.97;;;1.70;;
40072;SDS011;25774;52.256;9.356;2022-10-16T17:20:08;2.83;;;1.00;;
40072;SDS011;25774;52.256;9.356;2022-10-16T17:22:35;8.65;;;1.17;;
40072;SDS011;25774;52.256;9.356;2022-10-16T17:25:00;10.97;;;1.13;;
40072;SDS011;25774;52.256;9.356;2022-10-16T17:27:28;3.65;;;0.82;;